Nearby METAR Reports

 

KCOS - Colorado Springs, Colorado, USA
Distance from station: S 6mi, 9km
Updated: Sun, 20-Aug-2017 11:54am MDT
Mostly cloudy
Mostly cloudy
 Wind from E
Wind: E 9 mph , 15 km/h
Temperature: 86°F , 30°C
Dew Point: 39°F , 4°C
Humidity: 19%
Barometer: 30.18 inHg , 1022 hPa
Clouds: Mostly cloudy
Visibility: 10 miles , 16 km
Cloud details: Few Clouds 10000 ft
Mostly cloudy 25000 ft
2017/08/20 17:54 KCOS 201754Z 09008KT 10SM FEW100 BKN250 30/04 A3018 RMK AO2 SLP120 T03000044 10306 20167 50003 $
KAFF - Usaf Academy/Cos, Colorado, USA
Distance from station: NW 7mi, 12km
Updated: Sun, 20-Aug-2017 11:58am MDT
Few Clouds
Few Clouds
 Wind from N
Wind: N 8 mph , 13 km/h
Temperature: 81°F , 27°C
Dew Point: 37°F , 3°C
Humidity: 21%
Barometer: 30.20 inHg , 1022.7 hPa
Clouds: Few Clouds
Visibility: 10 miles , 16 km
Cloud details: Few Clouds 19000 ft
2017/08/20 17:58 KAFF 201758Z AUTO 35007KT 10SM FEW190 27/03 A3020 RMK AO2 SLP133 T02730032 10278 20109 52004
 
KFLY - Co Spngs Meadow, Colorado, USA
Distance from station: ENE 8mi, 13km
Updated: Sun, 20-Aug-2017 12:55pm MDT
Clear
Clear
 Wind from ENE
Wind: ENE 12 mph , 19 km/h, Gust: 17 mph , 28 km/h
Temperature: 81°F , 27°C
Dew Point: 36°F , 2°C
Humidity: 20%
Barometer: 30.25 inHg , 1024.4 hPa
Clouds: Clear
Visibility: 10 miles , 16 km
2017/08/20 18:55 KFLY 201855Z AUTO 07010G15KT 10SM CLR 27/02 A3025 RMK AO2 T02730021
KFCS - Fort Carson, Colorado, USA
Distance from station: S 17mi, 27km
Updated: Sun, 20-Aug-2017 11:58am MDT
Partly cloudy
Partly cloudy
 Wind from SE
Wind: SE 9 mph , 15 km/h
Temperature: 82°F , 28°C
Dew Point: 52°F , 11°C
Humidity: 35%
Barometer: 30.15 inHg , 1021 hPa
Clouds: Partly cloudy
Visibility: 10 miles , 16 km
Cloud details: Partly cloudy 14000 ft
Partly cloudy 19000 ft
2017/08/20 17:58 KFCS 201758Z AUTO 14008KT 10SM SCT140 SCT190 28/11 A3015 RMK AO2 SLP144 T02810108 10297 20156 51005
 
KMNH - Monument/Elbert, Colorado, USA
Distance from station: N 22mi, 35km
Updated: Sun, 20-Aug-2017 12:49pm MDT
Clear
Clear
 Wind from ENE
Wind: ENE 10 mph , 17 km/h
Temperature: 77°F , 25°C
Dew Point: 37°F , 3°C
Humidity: 24%
Barometer: 30.26 inHg , 1024.7 hPa
Clouds: Clear
Visibility: 10 miles , 16 km
2017/08/20 18:49 KMNH 201849Z AUTO 07009KT 10SM CLR 25/03 A3026 RMK AO2
K1V6 - Canon City, Colorado, USA
Distance from station: SSW 39mi, 62km
Updated: Tue, 16-May-2017 7:35am MDT
NOT Current
Clear
Clear
 Wind from W
Wind: W 3 mph , 6 km/h
Temperature: 63°F , 17°C
Dew Point: 28°F , -2°C
Humidity: 27%
Barometer: 29.76 inHg , 1007.8 hPa
Clouds: Clear
Visibility: 10 miles , 16 km
2017/05/16 13:35 K1V6 161335Z AUTO 26003KT 10SM CLR 17/M02 A2976 RMK AO2
 
KPUB - Pueblo, Colorado, USA
Distance from station: SSE 44mi, 71km
Updated: Sun, 20-Aug-2017 12:53pm MDT
Clear
Clear
 Wind from E
Wind: E 9 mph , 15 km/h
Temperature: 91°F , 33°C
Dew Point: 45°F , 7°C
Humidity: 20%
Barometer: 30.04 inHg , 1017.3 hPa
Clouds: Clear
Visibility: 10 miles , 16 km
2017/08/20 18:53 KPUB 201853Z 08008KT 050V130 10SM CLR 33/07 A3004 RMK AO2 SLP098 T03280072
KAPA - Denver/Arapahoe, Colorado, USA
Distance from station: N 47mi, 75km
Updated: Sun, 20-Aug-2017 12:53pm MDT
Few Clouds
Few Clouds
 Wind from NE
Wind: NE 9 mph , 15 km/h
Temperature: 84°F , 29°C
Dew Point: 30°F , -1°C
Humidity: 14%
Barometer: 30.16 inHg , 1021.3 hPa
Clouds: Few Clouds
Visibility: 10 miles , 16 km
Cloud details: Few Clouds 10000 ft
Few Clouds 15000 ft
Few Clouds 20000 ft
2017/08/20 18:53 KAPA 201853Z 05008KT 10SM FEW100 FEW150 FEW200 29/M01 A3016 RMK AO2 SLP131 VIRGA DSNT SW-NW T02891006